| time (UTC) | temp C | wind direction | speed KPH | gust KPH | rain 1hr cm | rain 24hr cm | rain mn cm | humidity % | barometer mb |
| 20260906100047 | 16 | 0 | 0.0 | 3.2 | 0.00 | 0.00 | 0.00 | 89 | 1018.0 |
| 20260906094553 | 17 | 0 | 0.0 | 4.8 | 0.00 | 0.00 | 0.00 | 89 | 1017.9 |
| 20260906093107 | 17 | 0 | 0.0 | 3.2 | 0.00 | 0.00 | 0.00 | 89 | 1017.6 |
| 20260906091546 | 17 | 88 | 0.0 | 4.8 | 0.00 | 0.00 | 0.00 | 90 | 1017.5 |
| 20260906090058 | 17 | 0 | 0.0 | 6.4 | 0.00 | 0.00 | 0.00 | 90 | 1017.6 |
| 20260906084554 | 17 | 0 | 0.0 | 4.8 | 0.00 | 0.00 | 0.00 | 89 | 1017.5 |
| 20260906083050 | 17 | 92 | 0.0 | 6.4 | 0.00 | 0.00 | 0.00 | 89 | 1017.5 |
| 20260906081556 | 18 | 0 | 1.6 | 4.8 | 0.00 | 0.00 | 0.00 | 88 | 1017.4 |
| 20260906080057 | 18 | 95 | 1.6 | 9.7 | 0.00 | 0.00 | 0.00 | 87 | 1017.4 |
| 20260906074559 | 18 | 55 | 3.2 | 12.9 | 0.00 | 0.00 | 0.00 | 87 | 1017.5 |
| 20260906073049 | 19 | 109 | 3.2 | 14.5 | 0.00 | 0.00 | 0.00 | 90 | 1017.5 |
| 20260906071557 | 20 | 85 | 1.6 | 12.9 | 0.00 | 0.00 | 0.00 | 90 | 1017.5 |
| 20260906070052 | 20 | 57 | 0.0 | 6.4 | 0.00 | 0.00 | 0.00 | 91 | 1017.5 |
| 20260906064546 | 20 | 61 | 3.2 | 6.4 | 0.00 | 0.00 | 0.00 | 91 | 1017.5 |
| 20260906063057 | 20 | 0 | 0.0 | 3.2 | 0.00 | 0.00 | 0.00 | 91 | 1017.5 |
| 20260906061558 | 20 | 78 | 0.0 | 9.7 | 0.00 | 0.00 | 0.00 | 90 | 1017.3 |
| 20260906060053 | 20 | 88 | 1.6 | 6.4 | 0.00 | 0.00 | 0.00 | 90 | 1017.3 |
| 20260906054606 | 20 | 61 | 3.2 | 8.0 | 0.00 | 0.00 | 0.00 | 90 | 1017.2 |
| 20260906053056 | 20 | 46 | 3.2 | 9.7 | 0.00 | 0.00 | 0.00 | 90 | 1017.0 |
| 20260906051553 | 20 | 52 | 1.6 | 8.0 | 0.00 | 0.00 | 0.00 | 90 | 1016.6 |
| 20260906050114 | 20 | 48 | 0.0 | 11.3 | 0.00 | 0.00 | 0.00 | 90 | 1016.9 |
| 20260906044546 | 20 | 51 | 4.8 | 9.7 | 0.00 | 0.00 | 0.00 | 90 | 1016.7 |
| 20260906043054 | 21 | 53 | 3.2 | 8.0 | 0.00 | 0.00 | 0.00 | 90 | 1016.6 |
| 20260906041551 | 21 | 40 | 3.2 | 8.0 | 0.00 | 0.00 | 0.00 | 90 | 1016.5 |
| 20260906040113 | 21 | 51 | 1.6 | 8.0 | 0.00 | 0.00 | 0.00 | 90 | 1016.4 |
| 20260906034553 | 21 | 0 | 1.6 | 6.4 | 0.00 | 0.00 | 0.00 | 89 | 1016.3 |
| 20260906033102 | 21 | 37 | 1.6 | 9.7 | 0.00 | 0.00 | 0.00 | 89 | 1016.1 |
| 20260906031550 | 21 | 36 | 3.2 | 8.0 | 0.00 | 0.00 | 0.00 | 89 | 1016.0 |
| 20260906030047 | 21 | 57 | 3.2 | 6.4 | 0.00 | 0.00 | 0.00 | 89 | 1016.2 |
| 20260906024601 | 21 | 0 | 0.0 | 0.0 | 0.00 | 0.00 | 0.00 | 88 | 1016.1 |
| 20260906023057 | 21 | 0 | 0.0 | 9.7 | 0.00 | 0.00 | 0.00 | 87 | 1015.9 |
| 20260906021555 | 21 | 89 | 1.6 | 6.4 | 0.00 | 0.00 | 0.00 | 86 | 1015.9 |
| 20260906020053 | 22 | 0 | 0.0 | 9.7 | 0.00 | 0.00 | 0.00 | 86 | 1015.8 |
| 20260906014601 | 22 | 69 | 1.6 | 12.9 | 0.00 | 0.00 | 0.00 | 86 | 1015.8 |
| 20260906013048 | 22 | 67 | 4.8 | 16.1 | 0.00 | 0.00 | 0.00 | 86 | 1015.7 |
| 20260906011558 | 22 | 67 | 1.6 | 6.4 | 0.00 | 0.00 | 0.00 | 88 | 1015.5 |
| 20260906010055 | 22 | 63 | 1.6 | 9.7 | 0.00 | 0.00 | 0.00 | 89 | 1015.2 |
| 20260906004602 | 22 | 65 | 3.2 | 16.1 | 0.00 | 0.00 | 0.00 | 88 | 1015.0 |
| 20260906003058 | 22 | 57 | 4.8 | 20.9 | 0.00 | 0.00 | 0.00 | 88 | 1014.9 |
| 20260906001554 | 23 | 26 | 8.0 | 19.3 | 0.00 | 0.00 | 0.00 | 87 | 1014.8 |
| 20260906000053 | 23 | 70 | 9.7 | 22.5 | 0.00 | 0.00 | 0.00 | 86 | 1014.5 |
| 20260905234612 | 24 | 49 | 11.3 | 22.5 | 0.00 | 0.00 | 0.00 | 84 | 1014.5 |
| 20260905233050 | 25 | 58 | 9.7 | 20.9 | 0.00 | 0.00 | 0.00 | 82 | 1014.4 |
| 20260905231555 | 25 | 32 | 12.9 | 20.9 | 0.00 | 0.00 | 0.00 | 80 | 1014.2 |
| 20260905230128 | 26 | 31 | 6.4 | 14.5 | 0.00 | 0.00 | 0.00 | 80 | 1014.1 |
| 20260905224554 | 26 | 39 | 8.0 | 25.7 | 0.00 | 0.00 | 0.00 | 78 | 1013.9 |
| 20260905223050 | 26 | 34 | 8.0 | 19.3 | 0.00 | 0.00 | 0.00 | 79 | 1013.6 |
| 20260905221556 | 26 | 63 | 6.4 | 22.5 | 0.00 | 0.00 | 0.00 | 78 | 1013.5 |
| 20260905220053 | 26 | 50 | 6.4 | 22.5 | 0.00 | 0.00 | 0.00 | 81 | 1013.4 |
| 20260905214558 | 26 | 23 | 12.9 | 20.9 | 0.00 | 0.00 | 0.00 | 79 | 1013.4 |
| 20260905213053 | 27 | 42 | 11.3 | 24.1 | 0.00 | 0.00 | 0.00 | 78 | 1013.1 |
| 20260905211558 | 27 | 40 | 9.7 | 20.9 | 0.00 | 0.00 | 0.00 | 78 | 1013.3 |
| 20260905210050 | 27 | 28 | 8.0 | 20.9 | 0.00 | 0.00 | 0.00 | 77 | 1013.3 |
| 20260905204556 | 27 | 49 | 8.0 | 19.3 | 0.00 | 0.00 | 0.00 | 79 | 1013.3 |
| 20260905203058 | 27 | 66 | 11.3 | 20.9 | 0.00 | 0.00 | 0.00 | 81 | 1013.3 |
| 20260905201554 | 26 | 51 | 4.8 | 11.3 | 0.00 | 0.00 | 0.00 | 82 | 1013.5 |
| 20260905200057 | 27 | 78 | 8.0 | 22.5 | 0.00 | 0.00 | 0.00 | 78 | 1013.6 |
| 20260905194548 | 28 | 348 | 3.2 | 8.0 | 0.00 | 0.00 | 0.00 | 77 | 1013.5 |
| 20260905193110 | 28 | 238 | 0.0 | 6.4 | 0.00 | 0.00 | 0.00 | 77 | 1013.5 |
| 20260905191550 | 28 | 352 | 4.8 | 9.7 | 0.00 | 0.00 | 0.00 | 78 | 1013.7 |
| 20260905190053 | 27 | 308 | 4.8 | 12.9 | 0.00 | 0.00 | 0.00 | 79 | 1013.9 |
| 20260905184551 | 27 | 246 | 0.0 | 4.8 | 0.00 | 0.00 | 0.00 | 81 | 1014.0 |
| 20260905183059 | 27 | 200 | 0.0 | 6.4 | 0.00 | 0.00 | 0.00 | 83 | 1014.2 |
| 20260905181549 | 26 | 279 | 0.0 | 4.8 | 0.00 | 0.00 | 0.00 | 83 | 1014.3 |
| 20260905174600 | 26 | 0 | 0.0 | 3.2 | 0.00 | 0.00 | 0.00 | 82 | 1014.3 |
| 20260905173048 | 26 | 315 | 1.6 | 4.8 | 0.00 | 0.00 | 0.00 | 83 | 1014.4 |
| 20260905171602 | 26 | 243 | 1.6 | 6.4 | 0.00 | 0.00 | 0.00 | 82 | 1014.6 |
| 20260905170054 | 26 | 300 | 1.6 | 8.0 | 0.00 | 0.00 | 0.00 | 82 | 1014.7 |
| 20260905164553 | 25 | 0 | 1.6 | 6.4 | 0.00 | 0.00 | 0.00 | 83 | 1014.7 |
| 20260905163100 | 25 | 221 | 4.8 | 11.3 | 0.00 | 0.00 | 0.00 | 83 | 1014.7 |
| 20260905161556 | 25 | 262 | 4.8 | 9.7 | 0.00 | 0.00 | 0.00 | 84 | 1014.9 |
| 20260905160055 | 25 | 224 | 1.6 | 9.7 | 0.00 | 0.00 | 0.00 | 85 | 1014.9 |
| 20260905154606 | 24 | 259 | 0.0 | 4.8 | 0.00 | 0.00 | 0.00 | 84 | 1015.0 |
| 20260905153056 | 24 | 0 | 0.0 | 4.8 | 0.00 | 0.00 | 0.00 | 83 | 1014.8 |
| 20260905151552 | 24 | 0 | 0.0 | 6.4 | 0.00 | 0.00 | 0.00 | 85 | 1014.8 |
| 20260905150053 | 23 | 174 | 1.6 | 8.0 | 0.00 | 0.00 | 0.00 | 86 | 1014.9 |
| 20260905144558 | 23 | 177 | 0.0 | 4.8 | 0.00 | 0.00 | 0.00 | 86 | 1014.7 |
| 20260905143055 | 23 | 0 | 0.0 | 3.2 | 0.00 | 0.00 | 0.00 | 86 | 1014.6 |
| 20260905141547 | 23 | 0 | 0.0 | 0.0 | 0.00 | 0.00 | 0.00 | 86 | 1014.6 |
| 20260905140100 | 23 | 0 | 0.0 | 1.6 | 0.00 | 0.00 | 0.00 | 86 | 1014.7 |
| 20260905134552 | 23 | 0 | 0.0 | 1.6 | 0.00 | 0.00 | 0.00 | 88 | 1014.6 |
| 20260905133100 | 22 | 0 | 1.6 | 9.7 | 0.00 | 0.00 | 0.00 | 88 | 1014.3 |
| 20260905131557 | 22 | 207 | 6.4 | 11.3 | 0.00 | 0.00 | 0.00 | 88 | 1014.0 |
| 20260905130053 | 22 | 200 | 4.8 | 16.1 | 0.00 | 0.00 | 0.00 | 89 | 1013.9 |
| 20260905124554 | 22 | 190 | 6.4 | 12.9 | 0.00 | 0.00 | 0.00 | 89 | 1013.8 |
| 20260905123102 | 22 | 149 | 3.2 | 12.9 | 0.00 | 0.00 | 0.00 | 89 | 1013.9 |
| 20260905121601 | 22 | 165 | 3.2 | 12.9 | 0.00 | 0.00 | 0.00 | 89 | 1014.0 |
| 20260905120054 | 22 | 175 | 8.0 | 12.9 | 0.00 | 0.00 | 0.00 | 89 | 1013.8 |
| 20260905114549 | 22 | 144 | 6.4 | 16.1 | 0.00 | 0.00 | 0.00 | 89 | 1013.7 |
| 20260905113104 | 22 | 167 | 8.0 | 14.5 | 0.00 | 0.00 | 0.00 | 89 | 1013.4 |
| 20260905111551 | 22 | 182 | 6.4 | 16.1 | 0.00 | 0.00 | 0.00 | 89 | 1013.4 |
| 20260905110052 | 21 | 165 | 8.0 | 14.5 | 0.00 | 0.00 | 0.00 | 89 | 1013.3 |
| 20260905104548 | 21 | 169 | 3.2 | 9.7 | 0.00 | 0.00 | 0.00 | 89 | 1013.3 |
| 20260905103059 | 21 | 167 | 6.4 | 11.3 | 0.00 | 0.00 | 0.00 | 89 | 1013.3 |
| 20260905101554 | 21 | 197 | 4.8 | 11.3 | 0.00 | 0.00 | 0.00 | 88 | 1013.2 |